14J weather

Carl Folsom Airport
Elba, Alabama, United States

Public forecast

Using degrees Fahrenheit for public forecast. Weather courtesy of forecast.io.

Closest aviation weather report (METAR) to Carl Folsom Airport

Closest report is Enterprise Municipal Airport, 11.8 nm (21.8 km) SE. Retrieved 2020/06/04 15:15 UTC (10 minutes ago):

KEDN 041515Z AUTO 00000KT 10SM BKN017 BKN023 26/22 A3001 RMK AO2 T02590220

Closest aviation forecast (TAF) to Carl Folsom Airport

Forecast is more than 6 hours old.

Closest forecast is Cairns AAF (Fort Rucker) Air Field, 20.9 nm (38.8 km) ESE. Retrieved 2020/06/04 08:03 UTC (7 hours ago):

TAF TAF KOZR 040800Z 0408/0514 VRB06KT 9999 BKN160 QNH2994INS BECMG 0409/0410 VRB03KT 4800 BR SCT020 BKN160 QNH2995INS BECMG 0411/0412 VRB06KT 9999 NSW SCT025 BKN120 QNH3002INS BECMG 0417/0418 VRB06KT 8000 -SHRA VCTS SCT025CB QNH2995INS BECMG 0423/0424 VRB06KT 9999 NSW FEW030 BKN100 QNH2994INS BECMG 0500/0501 VRB06KT 8000 BR SCT025 BKN120 QNH2998INS BECMG 0513/0514 VRB06KT 9999 NSW FEW040 QNH3005INS TX26/0419Z TN21/0508Z